Time;durP1;ratioP1;P1;durP2;ratioP2;P2;SDS_P1;SDS_P2;PMS_P1;PMS_P2;Temp;Humidity;BMP_temperature;BMP_pressure;BME280_temperature;BME280_humidity;BME280_pressure;Samples;Min_cycle;Max_cycle;Signal;HPM_P1;HPM_P2
2021/04/26 00:00:32;;;;;;;1999.90;999.90;;;4.30;99.90;;;;;;5105652;28;20521;-83
2021/04/26 00:02:59;;;;;;;1999.90;999.90;;;4.30;99.90;;;;;;5118464;28;20514;-83
2021/04/26 00:05:27;;;;;;;1999.90;999.90;;;4.30;99.90;;;;;;5118922;28;20938;-83
2021/04/26 00:07:53;;;;;;;1999.90;999.90;;;4.30;99.90;;;;;;5118529;28;20606;-84
2021/04/26 00:10:20;;;;;;;1999.90;999.90;;;4.30;99.90;;;;;;5119303;28;20498;-83
2021/04/26 00:12:48;;;;;;;1999.90;999.90;;;4.20;99.90;;;;;;5107930;28;21065;-83
2021/04/26 00:15:18;;;;;;;1999.90;999.90;;;4.20;99.90;;;;;;5098771;28;20449;-83
2021/04/26 00:17:44;;;;;;;1999.90;999.90;;;4.20;99.90;;;;;;5111874;28;20471;-83
2021/04/26 00:20:13;;;;;;;1999.90;999.90;;;4.10;99.90;;;;;;5119816;28;20462;-83
2021/04/26 00:22:39;;;;;;;1999.90;999.90;;;4.00;99.90;;;;;;5108009;28;20470;-83
2021/04/26 00:25:07;;;;;;;1999.90;999.90;;;4.00;99.90;;;;;;5107911;28;20521;-85
2021/04/26 00:27:34;;;;;;;1999.90;999.90;;;4.00;99.90;;;;;;5119661;28;20530;-83
2021/04/26 00:30:02;;;;;;;1999.90;999.90;;;4.00;99.90;;;;;;5125952;28;20478;-83
2021/04/26 00:32:28;;;;;;;1999.90;999.90;;;4.00;99.90;;;;;;5132353;28;20475;-84
2021/04/26 00:34:54;;;;;;;1999.90;999.90;;;3.90;99.90;;;;;;5124908;28;20469;-83
2021/04/26 00:37:21;;;;;;;1999.90;999.90;;;3.90;99.90;;;;;;5113172;28;20864;-84
2021/04/26 00:39:47;;;;;;;1999.90;999.90;;;3.90;99.90;;;;;;5118520;28;20495;-83
2021/04/26 00:42:13;;;;;;;1999.90;999.90;;;3.90;99.90;;;;;;5129781;28;20447;-84
2021/04/26 00:44:40;;;;;;;1999.90;999.90;;;3.70;99.90;;;;;;5132959;28;20552;-85
2021/04/26 00:47:07;;;;;;;1999.90;999.90;;;3.70;99.90;;;;;;5131342;28;20453;-84
2021/04/26 00:49:33;;;;;;;1999.90;999.90;;;3.70;99.90;;;;;;5126368;28;20467;-84
2021/04/26 00:52:00;;;;;;;1999.90;999.90;;;3.70;99.90;;;;;;5133975;28;20471;-85
2021/04/26 00:54:26;;;;;;;1999.90;999.90;;;3.70;99.90;;;;;;5134857;28;20490;-84
2021/04/26 00:56:53;;;;;;;1999.90;999.90;;;3.60;99.90;;;;;;5134119;28;20447;-84
2021/04/26 00:59:20;;;;;;;1999.90;999.90;;;3.60;99.90;;;;;;5113041;28;20470;-85
2021/04/26 01:01:46;;;;;;;1999.90;999.90;;;3.60;99.90;;;;;;5123140;28;20455;-85
2021/04/26 01:04:13;;;;;;;1999.90;999.90;;;3.70;99.90;;;;;;5132341;27;20525;-84
2021/04/26 01:06:40;;;;;;;1999.90;999.90;;;3.60;99.90;;;;;;5130626;28;20952;-84
2021/04/26 01:09:06;;;;;;;442.17;416.27;;;3.60;99.90;;;;;;5121133;28;20495;-84
2021/04/26 01:11:41;;;;;;;421.13;395.27;;;3.50;99.90;;;;;;5129326;28;20443;-84
2021/04/26 01:14:18;;;;;;;444.13;417.30;;;3.40;99.90;;;;;;5112897;28;20461;-83
2021/04/26 01:16:50;;;;;;;117.53;99.73;;;3.40;99.90;;;;;;5114934;28;20523;-83
2021/04/26 01:19:52;;;;;;;129.97;114.67;;;3.40;99.90;;;;;;5115669;28;20496;-84
2021/04/26 01:22:41;;;;;;;133.43;119.43;;;3.40;99.90;;;;;;5119134;28;20540;-84
2021/04/26 01:25:09;;;;;;;105.17;72.47;;;3.40;99.90;;;;;;5130543;28;20466;-83
2021/04/26 01:27:58;;;;;;;138.63;124.97;;;3.30;99.90;;;;;;5117224;28;20519;-82
2021/04/26 01:30:31;;;;;;;107.83;72.13;;;3.30;99.90;;;;;;5120502;28;20417;-84
2021/04/26 01:33:02;;;;;;;109.33;88.43;;;3.30;99.90;;;;;;5132483;28;20488;-84
2021/04/26 01:35:30;;;;;;;123.33;109.83;;;3.30;99.90;;;;;;5126250;28;20466;-84
2021/04/26 01:38:01;;;;;;;114.53;96.53;;;3.20;99.90;;;;;;5112653;28;20484;-84
2021/04/26 01:40:28;;;;;;;149.47;135.50;;;3.20;99.90;;;;;;5113357;28;20496;-83
2021/04/26 01:42:59;;;;;;;147.93;133.73;;;3.20;99.90;;;;;;5135181;28;20469;-84
2021/04/26 01:45:26;;;;;;;112.37;89.20;;;3.20;99.90;;;;;;5130623;28;20503;-83
2021/04/26 01:47:55;;;;;;;107.67;77.93;;;3.20;99.90;;;;;;5116374;28;20451;-84
2021/04/26 01:50:23;;;;;;;96.13;60.83;;;3.20;99.90;;;;;;5115948;28;20503;-84
2021/04/26 01:52:50;;;;;;;99.13;61.70;;;3.10;99.90;;;;;;5114688;28;20462;-83
2021/04/26 01:55:19;;;;;;;106.60;79.30;;;3.10;99.90;;;;;;5115486;28;20425;-83
2021/04/26 01:57:46;;;;;;;92.67;53.87;;;3.10;99.90;;;;;;5125580;28;20435;-83
2021/04/26 02:00:16;;;;;;;112.77;96.30;;;3.10;99.90;;;;;;5115973;28;20446;-83
2021/04/26 02:02:44;;;;;;;103.20;75.27;;;3.10;99.90;;;;;;5120576;28;20477;-83
2021/04/26 02:05:12;;;;;;;97.57;64.70;;;3.10;99.90;;;;;;5113560;28;20486;-82
2021/04/26 02:07:43;;;;;;;105.37;70.57;;;3.00;99.90;;;;;;5107340;28;20544;-84
2021/04/26 02:10:11;;;;;;;107.70;78.87;;;3.00;99.90;;;;;;5122486;28;20501;-84
2021/04/26 02:12:39;;;;;;;104.63;82.60;;;3.10;99.90;;;;;;5121190;28;20558;-83
2021/04/26 02:15:08;;;;;;;94.57;60.10;;;3.00;99.90;;;;;;5105326;28;20446;-83
2021/04/26 02:17:35;;;;;;;97.80;67.67;;;3.00;99.90;;;;;;5118533;28;20509;-84
2021/04/26 02:20:03;;;;;;;97.70;58.27;;;3.00;99.90;;;;;;5100864;28;20462;-83
2021/04/26 02:22:29;;;;;;;93.00;56.90;;;3.00;99.90;;;;;;5098976;28;20474;-82
2021/04/26 02:24:56;;;;;;;93.30;59.07;;;3.00;99.90;;;;;;5119629;28;20486;-84
2021/04/26 02:27:22;;;;;;;99.90;60.60;;;3.00;99.90;;;;;;5118629;28;20513;-83
2021/04/26 02:29:49;;;;;;;94.73;54.57;;;3.00;99.90;;;;;;5103530;28;20447;-83
2021/04/26 02:32:24;;;;;;;97.87;58.63;;;3.00;99.90;;;;;;5118424;28;20441;-83
2021/04/26 02:34:53;;;;;;;91.20;53.23;;;3.00;99.90;;;;;;5119015;28;20443;-83
2021/04/26 02:37:29;;;;;;;110.00;94.47;;;2.90;99.90;;;;;;5100935;28;20959;-83
2021/04/26 02:40:02;;;;;;;91.73;58.40;;;2.90;99.90;;;;;;5099499;28;20454;-84
2021/04/26 02:42:29;;;;;;;96.27;61.53;;;2.90;99.90;;;;;;5117660;28;20404;-83
2021/04/26 02:44:57;;;;;;;97.37;71.20;;;2.90;99.90;;;;;;5119545;28;20479;-83
2021/04/26 02:47:24;;;;;;;92.77;64.00;;;2.90;99.90;;;;;;5107952;28;20437;-83
2021/04/26 02:49:51;;;;;;;94.67;64.20;;;2.90;99.90;;;;;;5119587;28;20519;-83
2021/04/26 02:52:18;;;;;;;95.60;64.17;;;2.90;99.90;;;;;;5103141;28;20442;-82
2021/04/26 02:54:46;;;;;;;99.47;69.43;;;2.80;99.90;;;;;;5100745;28;20973;-82
2021/04/26 02:57:14;;;;;;;95.13;66.50;;;2.80;99.90;;;;;;5113682;28;20981;-83
2021/04/26 02:59:42;;;;;;;96.70;77.50;;;2.70;99.90;;;;;;5113269;28;20427;-82
2021/04/26 03:02:09;;;;;;;96.87;58.53;;;2.70;99.90;;;;;;5107060;28;20431;-82
2021/04/26 03:04:35;;;;;;;92.73;64.97;;;2.60;99.90;;;;;;5100407;28;20486;-83
2021/04/26 03:07:05;;;;;;;97.30;76.40;;;2.60;99.90;;;;;;5110302;28;20442;-82
2021/04/26 03:09:32;;;;;;;107.63;70.20;;;2.60;99.90;;;;;;5121132;28;20871;-83
2021/04/26 03:11:59;;;;;;;93.23;64.57;;;2.60;99.90;;;;;;5112068;28;20515;-83
2021/04/26 03:14:28;;;;;;;92.90;58.77;;;2.60;99.90;;;;;;5109160;28;20511;-82
2021/04/26 03:16:56;;;;;;;102.47;73.93;;;2.60;99.90;;;;;;5106869;28;20458;-83
2021/04/26 03:19:23;;;;;;;92.77;62.23;;;2.50;99.90;;;;;;5100265;28;20469;-82
2021/04/26 03:21:51;;;;;;;91.23;50.13;;;2.50;99.90;;;;;;5111797;28;20795;-83
2021/04/26 03:24:18;;;;;;;98.83;70.90;;;2.50;99.90;;;;;;5119300;28;21004;-83
2021/04/26 03:26:46;;;;;;;100.33;74.60;;;2.50;99.90;;;;;;5106501;28;20466;-83
2021/04/26 03:29:16;;;;;;;100.20;68.23;;;2.50;99.90;;;;;;5099182;28;20536;-83
2021/04/26 03:31:44;;;;;;;95.10;71.00;;;2.50;99.90;;;;;;5113627;28;20444;-83
2021/04/26 03:34:11;;;;;;;96.93;73.73;;;2.50;99.90;;;;;;5123227;28;20479;-84
2021/04/26 03:36:37;;;;;;;84.73;48.37;;;2.50;99.90;;;;;;5118687;28;20449;-83
2021/04/26 03:39:07;;;;;;;98.13;66.63;;;2.40;99.90;;;;;;5119035;28;20437;-83
2021/04/26 03:41:33;;;;;;;95.80;65.27;;;2.40;99.90;;;;;;5118891;28;20448;-83
2021/04/26 03:43:59;;;;;;;113.47;101.43;;;2.40;99.90;;;;;;5118358;28;20546;-83
2021/04/26 03:46:26;;;;;;;86.83;50.07;;;2.40;99.90;;;;;;5118622;28;20452;-83
2021/04/26 03:48:53;;;;;;;95.83;60.13;;;2.40;99.90;;;;;;5109689;28;20501;-83
2021/04/26 03:51:19;;;;;;;93.30;60.60;;;2.40;99.90;;;;;;5121486;28;20832;-83
2021/04/26 03:53:46;;;;;;;106.00;83.63;;;2.40;99.90;;;;;;5121443;28;20523;-82
2021/04/26 03:56:12;;;;;;;97.57;69.13;;;2.40;99.90;;;;;;5109761;28;20946;-83
2021/04/26 03:58:38;;;;;;;90.10;60.70;;;2.40;99.90;;;;;;5111286;28;20461;-83
2021/04/26 04:01:04;;;;;;;99.80;75.00;;;2.40;99.90;;;;;;5126468;27;20532;-83
2021/04/26 04:03:31;;;;;;;90.43;53.40;;;2.30;99.90;;;;;;5107082;28;20484;-83
2021/04/26 04:05:58;;;;;;;82.03;35.03;;;2.30;99.90;;;;;;5110861;28;20497;-84
2021/04/26 04:08:24;;;;;;;94.30;62.00;;;2.40;99.90;;;;;;5118045;28;20460;-82
2021/04/26 04:10:51;;;;;;;87.00;40.97;;;2.40;99.90;;;;;;5102565;28;20541;-82
2021/04/26 04:13:17;;;;;;;90.53;57.07;;;2.30;99.90;;;;;;5113193;28;20606;-83
2021/04/26 04:15:43;;;;;;;78.33;24.37;;;2.30;99.90;;;;;;5122341;28;20503;-83
2021/04/26 04:18:10;;;;;;;86.20;44.07;;;2.30;99.90;;;;;;5111303;28;20457;-83
2021/04/26 04:20:36;;;;;;;86.13;44.03;;;2.40;99.90;;;;;;5113733;28;20472;-83
2021/04/26 04:23:03;;;;;;;81.40;38.13;;;2.30;99.90;;;;;;5112961;28;21075;-83
2021/04/26 04:25:29;;;;;;;88.27;45.27;;;2.30;99.90;;;;;;5101771;28;20420;-83
2021/04/26 04:27:56;;;;;;;85.30;39.17;;;2.30;99.90;;;;;;5098494;28;20456;-84
2021/04/26 04:30:22;;;;;;;115.97;39.97;;;2.30;99.90;;;;;;5099844;28;20833;-82
2021/04/26 04:32:48;;;;;;;95.53;27.43;;;2.30;99.90;;;;;;5118738;28;20447;-82
2021/04/26 04:35:15;;;;;;;118.03;91.83;;;2.30;99.90;;;;;;5110082;28;20429;-84
2021/04/26 04:37:41;;;;;;;80.80;21.90;;;2.70;99.90;;;;;;5111716;28;20498;-81
2021/04/26 04:40:09;;;;;;;76.27;17.20;;;3.30;99.90;;;;;;5109013;28;20428;-82
2021/04/26 04:42:35;;;;;;;77.27;15.20;;;3.20;99.90;;;;;;5105940;27;20458;-80
2021/04/26 04:45:02;;;;;;;74.27;14.40;;;3.10;99.90;;;;;;5102884;28;20866;-82
2021/04/26 04:47:29;;;;;;;73.47;15.37;;;3.00;99.90;;;;;;5101608;28;20463;-81
2021/04/26 04:49:55;;;;;;;76.00;12.53;;;2.90;99.90;;;;;;5101542;28;20450;-80
2021/04/26 04:52:21;;;;;;;72.30;11.93;;;2.90;99.90;;;;;;5110188;28;20494;-81
2021/04/26 04:54:48;;;;;;;74.10;11.77;;;2.90;99.90;;;;;;5120077;28;20849;-82
2021/04/26 04:57:15;;;;;;;72.40;13.00;;;3.00;99.90;;;;;;5119833;28;20432;-81
2021/04/26 04:59:41;;;;;;;71.53;12.37;;;2.90;99.90;;;;;;5122004;28;20424;-82
2021/04/26 05:02:07;;;;;;;71.07;13.67;;;2.90;99.90;;;;;;5122665;28;21140;-80
2021/04/26 05:04:34;;;;;;;71.00;12.37;;;3.00;99.90;;;;;;5123029;28;20485;-81
2021/04/26 05:07:00;;;;;;;77.57;14.77;;;3.00;99.90;;;;;;5111339;28;20488;-81
2021/04/26 05:09:26;;;;;;;74.40;13.93;;;3.00;99.90;;;;;;5099670;28;20961;-81
2021/04/26 05:11:53;;;;;;;74.50;13.87;;;3.10;99.90;;;;;;5101416;28;20456;-82
2021/04/26 05:14:20;;;;;;;73.97;17.27;;;3.20;99.90;;;;;;5102592;28;20471;-81
2021/04/26 05:16:46;;;;;;;86.40;15.40;;;3.20;99.90;;;;;;5101618;28;20448;-81
2021/04/26 05:19:13;;;;;;;78.97;21.77;;;3.30;99.90;;;;;;5102865;28;20543;-82
2021/04/26 05:21:41;;;;;;;71.83;16.97;;;3.40;99.90;;;;;;5101772;28;20451;-80
2021/04/26 05:24:08;;;;;;;82.60;17.97;;;3.40;99.90;;;;;;5117256;28;20533;-83
2021/04/26 05:26:35;;;;;;;78.57;15.97;;;3.50;99.90;;;;;;5122493;28;20512;-80
2021/04/26 05:29:02;;;;;;;71.40;15.03;;;3.60;99.90;;;;;;5122132;28;20892;-82
2021/04/26 05:31:29;;;;;;;72.07;16.53;;;3.70;99.90;;;;;;5122548;28;20891;-81
2021/04/26 05:33:56;;;;;;;73.30;16.33;;;3.80;99.90;;;;;;5177911;22;20521;-84
2021/04/26 05:36:22;;;;;;;74.10;18.00;;;3.80;99.90;;;;;;5096332;28;20528;-84
2021/04/26 05:38:48;;;;;;;79.10;15.30;;;3.90;99.90;;;;;;5092423;28;20451;-85
2021/04/26 05:41:15;;;;;;;86.47;28.57;;;4.00;99.90;;;;;;5096988;28;20954;-86
2021/04/26 05:43:41;;;;;;;93.83;45.57;;;4.10;99.90;;;;;;5096639;28;20474;-85
2021/04/26 05:46:07;;;;;;;80.27;22.27;;;4.20;99.90;;;;;;5097013;28;20930;-85
2021/04/26 05:48:35;;;;;;;88.73;28.67;;;4.20;99.90;;;;;;5088387;28;20434;-85
2021/04/26 05:51:01;;;;;;;76.00;18.13;;;4.40;99.90;;;;;;5092596;28;20451;-86
2021/04/26 05:53:27;;;;;;;73.80;16.67;;;4.50;99.90;;;;;;5092956;28;20909;-85
2021/04/26 05:55:54;;;;;;;79.67;23.43;;;4.60;99.90;;;;;;5095230;28;20439;-85
2021/04/26 05:58:21;;;;;;;75.87;15.50;;;4.70;99.90;;;;;;5093005;28;20510;-86
2021/04/26 06:00:47;;;;;;;80.90;22.37;;;4.80;99.90;;;;;;5102791;28;20432;-86
2021/04/26 06:03:14;;;;;;;81.97;22.90;;;4.90;99.90;;;;;;5093463;28;20448;-85
2021/04/26 06:05:41;;;;;;;81.20;15.57;;;4.90;99.90;;;;;;5080614;28;20484;-85
2021/04/26 06:08:07;;;;;;;79.47;14.80;;;5.10;99.90;;;;;;5081233;28;20532;-85
2021/04/26 06:10:34;;;;;;;77.97;18.67;;;5.20;99.90;;;;;;5083813;28;20510;-85
2021/04/26 06:13:00;;;;;;;94.87;40.43;;;5.30;99.90;;;;;;5088854;28;20443;-84
2021/04/26 06:15:27;;;;;;;102.50;40.93;;;5.30;99.90;;;;;;5101600;28;20511;-84
2021/04/26 06:18:09;;;;;;;98.30;57.93;;;5.40;99.90;;;;;;5114883;28;20393;-83
2021/04/26 06:20:36;;;;;;;148.60;134.30;;;5.50;99.90;;;;;;5100413;28;20431;-83
2021/04/26 06:23:03;;;;;;;160.80;144.80;;;5.50;99.90;;;;;;5085829;28;20537;-83
2021/04/26 06:25:32;;;;;;;205.13;188.83;;;5.60;99.90;;;;;;5087314;28;20498;-83
2021/04/26 06:27:59;;;;;;;321.43;300.20;;;5.60;99.90;;;;;;5091836;28;20991;-83
2021/04/26 06:30:25;;;;;;;1501.87;823.43;;;5.80;99.90;;;;;;5092995;28;20967;-83
2021/04/26 06:32:52;;;;;;;219.03;200.70;;;5.80;99.90;;;;;;5099263;28;20478;-82
2021/04/26 06:35:18;;;;;;;863.00;515.07;;;6.00;99.90;;;;;;5083103;28;20541;-82
2021/04/26 06:37:44;;;;;;;832.10;486.17;;;6.10;99.90;;;;;;5087963;28;20538;-86
2021/04/26 06:40:13;;;;;;;1999.90;999.90;;;6.20;99.90;;;;;;5083746;28;20469;-85
2021/04/26 06:42:39;;;;;;;1999.90;999.90;;;6.30;99.90;;;;;;5082898;28;20230;-86
2021/04/26 06:45:07;;;;;;;1999.90;999.90;;;6.50;99.90;;;;;;5103514;28;20486;-87
2021/04/26 06:47:33;;;;;;;1999.90;999.90;;;6.70;99.90;;;;;;5087040;28;20457;-87
2021/04/26 06:50:00;;;;;;;1999.90;999.90;;;6.70;99.90;;;;;;5076911;28;20584;-86
2021/04/26 06:52:26;;;;;;;42.30;10.33;;;6.80;99.90;;;;;;5090333;28;20549;-87
2021/04/26 06:54:53;;;;;;;80.23;67.03;;;6.90;99.90;;;;;;5083780;28;20508;-86
2021/04/26 06:57:23;;;;;;;33.10;6.10;;;7.00;99.90;;;;;;5100996;28;20469;-87
2021/04/26 06:59:50;;;;;;;121.50;111.03;;;7.10;99.90;;;;;;5093142;28;21036;-86
2021/04/26 07:02:18;;;;;;;39.33;7.20;;;7.20;99.90;;;;;;5081685;28;20534;-87
2021/04/26 07:04:44;;;;;;;12.77;4.87;;;7.40;99.90;;;;;;5106783;28;20582;-86
2021/04/26 07:07:10;;;;;;;25.07;6.20;;;7.70;99.90;;;;;;5116841;28;20540;-86
2021/04/26 07:09:37;;;;;;;18.90;6.40;;;8.10;99.90;;;;;;5088559;28;20549;-85
2021/04/26 07:12:03;;;;;;;16.70;5.50;;;8.40;99.90;;;;;;5084223;28;20527;-86
2021/04/26 07:14:31;;;;;;;17.37;5.53;;;8.70;99.90;;;;;;5091866;28;21005;-87
2021/04/26 07:16:58;;;;;;;22.20;6.40;;;9.40;99.90;;;;;;5093786;28;20462;-85
2021/04/26 07:19:24;;;;;;;15.87;6.03;;;9.80;99.90;;;;;;5096644;28;20446;-87
2021/04/26 07:21:50;;;;;;;18.10;5.83;;;10.20;99.90;;;;;;5095933;28;20501;-86
2021/04/26 07:24:17;;;;;;;19.67;5.40;;;10.70;99.90;;;;;;5080984;28;20562;-87
2021/04/26 07:26:43;;;;;;;19.17;5.77;;;11.10;99.90;;;;;;5090710;28;21595;-85
2021/04/26 07:29:09;;;;;;;17.13;4.80;;;11.60;99.90;;;;;;5087706;28;20450;-86
2021/04/26 07:31:36;;;;;;;18.87;5.70;;;12.10;99.90;;;;;;5096637;28;20930;-86
2021/04/26 07:34:03;;;;;;;14.57;4.87;;;12.80;99.90;;;;;;5093728;28;20921;-86
2021/04/26 07:36:30;;;;;;;16.43;4.47;;;13.90;99.90;;;;;;5092784;28;20481;-86
2021/04/26 07:38:56;;;;;;;11.87;3.67;;;14.60;99.90;;;;;;5091917;28;20457;-86
2021/04/26 07:41:23;;;;;;;9.83;2.90;;;14.90;96.20;;;;;;5093012;28;20439;-87
2021/04/26 07:43:49;;;;;;;8.43;2.73;;;15.80;89.10;;;;;;5078389;28;20547;-85
2021/04/26 07:46:15;;;;;;;9.07;2.93;;;16.10;81.80;;;;;;5089084;28;20488;-87
2021/04/26 07:48:43;;;;;;;7.53;2.43;;;17.20;79.50;;;;;;5086947;28;20565;-86
2021/04/26 07:51:12;;;;;;;8.00;2.07;;;18.10;69.00;;;;;;5100755;28;20460;-85
2021/04/26 07:53:38;;;;;;;9.30;2.17;;;18.00;65.40;;;;;;5106176;28;20450;-87
2021/04/26 07:56:05;;;;;;;9.27;2.87;;;19.00;63.30;;;;;;5086192;28;20546;-86
2021/04/26 07:58:31;;;;;;;8.60;2.77;;;20.10;62.50;;;;;;5093890;28;20529;-87
2021/04/26 08:00:58;;;;;;;6.57;2.00;;;21.20;62.40;;;;;;5113406;28;20464;-85
2021/04/26 08:03:24;;;;;;;7.00;2.50;;;21.20;55.80;;;;;;5126537;28;20459;-85
2021/04/26 08:05:51;;;;;;;7.60;3.83;;;22.00;54.90;;;;;;5097894;28;20465;-86
2021/04/26 08:08:18;;;;;;;6.60;2.23;;;21.60;55.60;;;;;;5094672;28;20456;-85
2021/04/26 08:10:44;;;;;;;6.80;2.30;;;21.40;54.40;;;;;;5099392;28;21053;-86
2021/04/26 08:13:10;;;;;;;6.80;2.20;;;21.90;53.70;;;;;;5093622;28;20550;-85
2021/04/26 08:15:37;;;;;;;8.20;3.50;;;22.50;51.30;;;;;;5099813;28;20478;-86
2021/04/26 08:18:03;;;;;;;5.87;2.20;;;22.50;49.80;;;;;;5101410;28;20454;-86
2021/04/26 08:20:30;;;;;;;7.63;2.57;;;23.00;50.40;;;;;;5098038;28;21053;-86
2021/04/26 08:22:57;;;;;;;6.43;2.50;;;23.90;49.70;;;;;;5096989;28;20539;-86
2021/04/26 08:25:24;;;;;;;7.65;2.15;;;24.80;49.90;;;;;;5094570;28;20456;-85
2021/04/26 08:27:50;;;;;;;6.00;1.70;;;24.40;47.50;;;;;;5098121;28;20728;-84
2021/04/26 08:30:17;;;;;;;5.83;1.80;;;23.00;47.30;;;;;;5092048;28;20449;-84
2021/04/26 08:32:43;;;;;;;6.30;1.60;;;23.60;43.90;;;;;;5092312;28;20481;-87
2021/04/26 08:35:11;;;;;;;12.93;6.70;;;24.00;42.50;;;;;;5096907;28;20477;-89
2021/04/26 08:37:37;;;;;;;9.47;2.00;;;23.80;43.20;;;;;;5077436;28;20475;-87
2021/04/26 08:40:06;;;;;;;6.23;2.00;;;23.60;44.40;;;;;;5098034;28;20508;-88
2021/04/26 08:42:32;;;;;;;5.50;2.00;;;24.90;45.00;;;;;;5085972;28;20534;-87
2021/04/26 08:44:58;;;;;;;4.83;1.60;;;24.60;43.00;;;;;;5108557;28;20481;-86
2021/04/26 08:47:25;;;;;;;7.43;2.40;;;25.90;45.10;;;;;;5096383;28;20901;-87
2021/04/26 08:49:54;;;;;;;7.50;2.03;;;26.40;44.50;;;;;;5098537;28;20506;-88
2021/04/26 08:52:21;;;;;;;6.57;2.10;;;25.80;42.30;;;;;;5100464;28;20464;-88
2021/04/26 08:54:47;;;;;;;6.70;2.07;;;25.20;40.90;;;;;;5092897;28;20597;-89
2021/04/26 08:57:15;;;;;;;6.70;2.20;;;25.40;43.00;;;;;;5080176;28;20451;-87
2021/04/26 08:59:43;;;;;;;4.90;2.00;;;24.60;40.20;;;;;;5079102;28;20455;-87
2021/04/26 09:02:10;;;;;;;6.43;2.30;;;24.30;41.10;;;;;;5085074;28;20450;-88
2021/04/26 09:04:38;;;;;;;5.30;2.13;;;23.90;41.60;;;;;;5094966;28;20493;-87
2021/04/26 09:07:11;;;;;;;7.47;2.20;;;24.70;41.50;;;;;;5080584;28;20461;-87
2021/04/26 09:09:40;;;;;;;6.47;2.47;;;25.50;45.60;;;;;;5076879;28;21001;-89
2021/04/26 09:12:08;;;;;;;6.00;2.00;;;24.60;40.60;;;;;;5076985;28;20981;-87
2021/04/26 09:14:43;;;;;;;6.10;1.80;;;25.50;40.50;;;;;;5082886;28;20486;-87
2021/04/26 09:17:33;;;;;;;8.80;1.90;;;26.20;41.50;;;;;;5078812;28;20497;-87
2021/04/26 09:20:03;;;;;;;6.47;2.30;;;26.50;41.20;;;;;;5095012;28;20507;-88
2021/04/26 09:22:44;;;;;;;6.00;1.90;;;28.00;43.30;;;;;;5093303;28;20850;-87
2021/04/26 09:25:31;;;;;;;6.00;2.20;;;27.50;39.40;;;;;;5094790;28;20516;-88
2021/04/26 09:28:00;;;;;;;7.13;2.40;;;28.50;39.10;;;;;;5094802;28;20443;-87
2021/04/26 09:30:49;;;;;;;7.70;2.33;;;28.00;37.00;;;;;;5102039;28;20450;-87
2021/04/26 09:33:27;;;;;;;5.17;2.17;;;27.00;40.00;;;;;;5094597;28;20525;-87
2021/04/26 09:36:15;;;;;;;8.77;2.63;;;28.10;37.90;;;;;;5096082;28;20566;-87
2021/04/26 09:38:46;;;;;;;7.00;2.27;;;27.80;36.90;;;;;;5093684;28;20985;-88
2021/04/26 09:41:24;;;;;;;6.90;2.70;;;28.80;39.60;;;;;;5089296;28;20447;-84
2021/04/26 09:44:08;;;;;;;5.57;2.10;;;27.90;35.70;;;;;;5094690;28;20521;-86
2021/04/26 09:46:41;;;;;;;5.73;2.20;;;28.40;40.40;;;;;;5095741;28;20461;-85
2021/04/26 09:49:10;;;;;;;6.60;2.47;;;28.80;40.20;;;;;;5078396;28;20962;-85
2021/04/26 09:51:36;;;;;;;6.23;2.50;;;28.50;38.50;;;;;;5088454;28;20520;-88
2021/04/26 09:54:04;;;;;;;8.10;2.50;;;29.20;36.30;;;;;;5084308;28;20593;-86
2021/04/26 09:56:38;;;;;;;5.70;2.30;;;29.10;35.30;;;;;;5090328;28;20519;-86
2021/04/26 09:59:04;;;;;;;5.37;2.47;;;29.90;34.80;;;;;;5081196;28;20477;-86
2021/04/26 10:01:32;;;;;;;6.70;2.40;;;30.00;35.90;;;;;;5095871;28;20442;-87
2021/04/26 10:04:00;;;;;;;6.67;2.47;;;30.40;34.30;;;;;;5103778;28;20478;-89
2021/04/26 10:06:26;;;;;;;5.93;2.60;;;29.80;36.00;;;;;;5104526;28;20527;-88
2021/04/26 10:08:54;;;;;;;6.67;2.10;;;29.70;38.00;;;;;;5080463;28;20460;-85
2021/04/26 10:11:23;;;;;;;6.50;2.57;;;29.30;36.00;;;;;;5086223;28;20533;-85
2021/04/26 10:13:51;;;;;;;6.07;2.50;;;29.80;33.70;;;;;;5092022;28;20515;-85
2021/04/26 10:16:23;;;;;;;6.50;2.53;;;30.30;32.90;;;;;;5094370;28;20896;-86
2021/04/26 10:18:50;;;;;;;5.70;2.77;;;29.30;36.90;;;;;;5091851;28;20524;-85
2021/04/26 10:21:32;;;;;;;5.53;2.20;;;30.60;34.50;;;;;;5093692;28;20448;-86
2021/04/26 10:23:58;;;;;;;6.93;2.67;;;30.60;33.90;;;;;;5092810;28;20530;-85
2021/04/26 10:26:43;;;;;;;6.80;2.63;;;30.70;33.30;;;;;;5079722;28;20459;-86
2021/04/26 10:29:12;;;;;;;9.27;2.80;;;31.10;34.30;;;;;;5072293;28;20863;-86
2021/04/26 10:32:01;;;;;;;5.73;2.63;;;30.10;32.70;;;;;;5083869;28;20878;-85
2021/04/26 10:34:28;;;;;;;6.57;2.90;;;30.00;32.70;;;;;;5099135;28;20515;-85
2021/04/26 10:36:59;;;;;;;7.93;2.70;;;29.40;35.30;;;;;;5104143;28;20450;-86
2021/04/26 10:39:45;;;;;;;7.77;2.10;;;30.20;35.90;;;;;;5094963;28;20443;-86
2021/04/26 10:45:50;;;;;;;5.67;2.20;;;30.40;33.90;;;;;;5021722;28;20490;-85
2021/04/26 10:48:25;;;;;;;8.60;2.50;;;29.80;35.40;;;;;;5013169;28;20470;-87
2021/04/26 10:50:52;;;;;;;6.23;2.30;;;30.90;34.50;;;;;;5063513;28;20458;-83
2021/04/26 10:53:21;;;;;;;7.63;2.80;;;31.20;32.70;;;;;;5091783;28;20434;-84
2021/04/26 10:55:54;;;;;;;5.10;1.87;;;30.90;37.10;;;;;;5126197;28;20478;-84
2021/04/26 10:58:29;;;;;;;6.20;2.30;;;32.30;36.50;;;;;;5127441;28;20434;-85
2021/04/26 11:00:59;;;;;;;7.00;3.07;;;32.40;33.30;;;;;;5092853;28;20507;-85
2021/04/26 11:03:37;;;;;;;5.80;2.80;;;32.70;30.40;;;;;;5092140;28;20943;-83
2021/04/26 11:06:25;;;;;;;6.70;2.70;;;32.40;31.60;;;;;;5104247;28;20415;-84
2021/04/26 11:09:18;;;;;;;6.00;2.70;;;33.10;31.50;;;;;;5122455;28;20584;-86
2021/04/26 11:12:02;;;;;;;7.30;2.70;;;33.70;30.80;;;;;;5097130;28;20502;-85
2021/04/26 11:14:32;;;;;;;6.80;3.27;;;33.40;29.60;;;;;;5098261;28;20473;-86
2021/04/26 11:17:03;;;;;;;7.67;2.50;;;33.10;29.60;;;;;;5090739;28;20431;-86
2021/04/26 11:19:33;;;;;;;6.20;2.60;;;33.20;30.00;;;;;;5099982;28;20839;-85
2021/04/26 11:22:04;;;;;;;5.97;2.70;;;33.10;30.50;;;;;;5094950;28;20461;-85
2021/04/26 11:25:04;;;;;;;6.67;3.20;;;34.10;29.30;;;;;;5107105;28;20462;-85
2021/04/26 11:27:32;;;;;;;7.20;3.20;;;34.80;31.00;;;;;;5101306;28;20438;-84
2021/04/26 11:30:17;;;;;;;8.80;3.40;;;35.10;31.20;;;;;;5108011;28;20969;-85
2021/04/26 11:33:10;;;;;;;8.50;3.10;;;34.50;33.80;;;;;;5091956;28;20438;-85
2021/04/26 11:35:55;;;;;;;5.93;2.53;;;34.50;29.20;;;;;;5103555;28;20489;-85
2021/04/26 11:38:24;;;;;;;5.77;2.73;;;33.30;29.40;;;;;;5085735;28;20460;-86
2021/04/26 11:40:53;;;;;;;8.20;3.00;;;32.60;29.20;;;;;;5096063;28;20455;-86
2021/04/26 11:43:19;;;;;;;5.93;2.70;;;32.40;32.20;;;;;;5108562;28;20510;-85
2021/04/26 11:45:48;;;;;;;5.43;2.60;;;33.10;29.60;;;;;;5101890;28;20490;-86
2021/04/26 11:48:21;;;;;;;6.67;3.00;;;33.60;30.80;;;;;;5091297;28;20455;-86
2021/04/26 11:50:48;;;;;;;7.03;3.07;;;34.60;31.70;;;;;;5084515;28;20453;-85
2021/04/26 11:53:29;;;;;;;10.17;3.10;;;33.60;30.10;;;;;;5086604;28;20452;-85
2021/04/26 11:56:10;;;;;;;7.10;2.67;;;33.90;30.50;;;;;;5088785;28;20922;-86
2021/04/26 11:58:37;;;;;;;5.73;2.93;;;34.70;29.40;;;;;;5087948;28;20507;-87
2021/04/26 12:01:09;;;;;;;6.63;2.60;;;33.90;28.40;;;;;;5089070;28;20934;-87
2021/04/26 12:03:50;;;;;;;6.30;2.97;;;34.20;29.10;;;;;;5085497;28;20443;-87
2021/04/26 12:06:19;;;;;;;5.60;2.40;;;35.00;28.70;;;;;;5083065;28;20462;-87
2021/04/26 12:08:45;;;;;;;5.87;2.70;;;33.70;28.30;;;;;;5098621;28;20510;-86
2021/04/26 12:11:18;;;;;;;5.67;3.00;;;31.90;29.70;;;;;;5106370;28;20485;-87
2021/04/26 12:14:04;;;;;;;6.03;2.80;;;32.80;29.50;;;;;;5100170;28;20561;-89
2021/04/26 12:16:30;;;;;;;6.63;2.10;;;32.90;30.00;;;;;;5093371;28;20530;-87
2021/04/26 12:18:58;;;;;;;7.27;2.50;;;33.30;30.00;;;;;;5084269;28;20461;-87
2021/04/26 12:21:25;;;;;;;6.13;2.63;;;32.60;29.80;;;;;;5096027;28;20552;-86
2021/04/26 12:23:51;;;;;;;5.87;2.90;;;32.40;30.30;;;;;;5094025;28;20461;-88
2021/04/26 12:26:18;;;;;;;7.37;2.67;;;32.30;30.40;;;;;;5103914;28;20921;-87
2021/04/26 12:28:47;;;;;;;6.03;2.70;;;33.50;29.60;;;;;;5083667;28;20477;-88
2021/04/26 12:31:26;;;;;;;8.00;2.90;;;33.20;30.20;;;;;;5090953;28;20453;-88
2021/04/26 12:33:52;;;;;;;5.60;2.23;;;33.80;31.20;;;;;;5088907;28;20486;-89
2021/04/26 12:36:20;;;;;;;5.27;2.30;;;34.50;30.00;;;;;;5075516;28;20484;-89
2021/04/26 12:38:53;;;;;;;5.03;2.10;;;35.30;29.80;;;;;;5080607;28;20450;-89
2021/04/26 12:41:20;;;;;;;5.60;2.47;;;34.90;28.50;;;;;;5088499;28;20496;-86
2021/04/26 12:43:53;;;;;;;6.63;3.20;;;34.80;31.10;;;;;;5083264;28;20453;-85
2021/04/26 12:46:20;;;;;;;6.00;2.70;;;33.30;30.10;;;;;;5092122;28;20212;-87
2021/04/26 12:48:47;;;;;;;6.03;2.93;;;33.40;29.60;;;;;;5084238;28;20963;-85